Weather History for Moriarty, NM

Change the Weather History Date:

Sunday, December 1, 2013

  Actual Average (KABQ) Record (KABQ)
Temperature  
Mean Temperature 36 °F 39 °F  
Max Temperature 46 °F 49 °F 67 °F (1892)
Min Temperature 25 °F 29 °F 11 °F (1918)
Degree Days  
Heating Degree Days 30 26  
Month to date heating degree days 26  
Since 1 July heating degree days 893  
Cooling Degree Days 0 0  
Month to date cooling degree days 0  
Year to date cooling degree days 1322  
Moisture  
Dew Point 24 °F    
Average Humidity 65    
Maximum Humidity 93    
Minimum Humidity 31    
Precipitation  
Precipitation 0.00 in 0.02 in 0.67 in (1906)
Month to date precipitation 0.02  
Year to date precipitation 8.97  
Snow  
Snow 0.00 in - - ()
Month to date snowfall  
Since 1 July snowfall  
Snow Depth -    
Sea Level Pressure  
Sea Level Pressure 30.24 in    
Wind  
Wind Speed 5 mph (North)    
Max Wind Speed 25 mph    
Max Gust Speed 30 mph    
Visibility 10 miles    
Events      
T = Trace of Precipitation, MM = Missing Value Source: NWS Daily Summary

Daily Weather History Graph

Daily Weather History Graph

Search for Another Location

Airport:

Trip Planner

Search our weather history database for the weather conditions in past years. The results will help you decide how hot, cold, wet, or windy it might be!

Date:

Astronomy

Dec. 01, 2013 Rise Set
Actual Time 6:53 AM MST 4:52 PM MST
Civil Twilight 6:26 AM MST 5:20 PM MST
Nautical Twilight 5:54 AM MST 5:51 PM MST
Astronomical Twilight 5:24 AM MST 6:21 PM MST
Moon 5:17 AM MST (12/1) 4:02 PM MST (12/1)
Length of Visible Light 10h 53m
Length of Day
9h 58m
Waning Crescent, 2% of the Moon is Illuminated
Dec 1
Waning Crescent
Dec 2
New
Dec 9
First Quarter
Dec 17
Full
Dec 25
Last Quarter

Hourly Weather History & Observations

Time (MST) Temp. Windchill Dew Point Humidity Pressure Visibility Wind Dir Wind Speed Gust Speed Precip Events Conditions
12:15 AM 29.3 °F - 27.1 °F 92% 30.29 in 10.0 mi Calm Calm - N/A   Clear
12:35 AM 28.9 °F - 27.0 °F 92% 30.28 in 10.0 mi Calm Calm - N/A   Clear
12:55 AM 29.7 °F - 27.3 °F 91% 30.27 in 10.0 mi Calm Calm - N/A   Clear
1:15 AM 30.4 °F - 27.3 °F 88% 30.28 in 10.0 mi Calm Calm - N/A   Clear
1:35 AM 30.6 °F 27.1 °F 27.1 °F 87% 30.27 in 10.0 mi North 3.5 mph - N/A   Clear
1:55 AM 29.8 °F 24.9 °F 27.1 °F 90% 30.27 in 10.0 mi North 4.6 mph - N/A   Clear
2:15 AM 29.1 °F 24.1 °F 26.4 °F 90% 30.27 in 10.0 mi NNW 4.6 mph - N/A   Clear
2:35 AM 28.4 °F 22.2 °F 26.6 °F 93% 30.27 in 10.0 mi NNW 5.8 mph - N/A   Clear
2:55 AM 29.5 °F 22.5 °F 27.5 °F 92% 30.27 in 10.0 mi North 6.9 mph - N/A   Clear
3:15 AM 30.0 °F 23.2 °F 27.5 °F 90% 30.27 in 10.0 mi North 6.9 mph - N/A   Clear
3:35 AM 29.7 °F 24.7 °F 27.1 °F 90% 30.26 in 10.0 mi North 4.6 mph - N/A   Clear
3:55 AM 29.3 °F 22.3 °F 26.2 °F 88% 30.25 in 10.0 mi North 6.9 mph - N/A   Clear
4:15 AM 29.8 °F 23.0 °F 26.4 °F 87% 30.26 in 10.0 mi North 6.9 mph - N/A   Clear
4:35 AM 29.3 °F 23.2 °F 25.7 °F 86% 30.26 in 10.0 mi North 5.8 mph - N/A   Clear
4:55 AM 28.2 °F - 24.8 °F 87% 30.27 in 10.0 mi Calm Calm - N/A   Clear
5:15 AM 27.9 °F 22.6 °F 24.4 °F 87% 30.27 in 10.0 mi ENE 4.6 mph - N/A   Clear
5:35 AM 27.5 °F 22.2 °F 24.1 °F 87% 30.27 in 10.0 mi NE 4.6 mph - N/A   Clear
5:55 AM 27.7 °F 21.3 °F 24.3 °F 87% 30.28 in 10.0 mi NE 5.8 mph - N/A   Clear
6:15 AM 28.0 °F 24.2 °F 24.6 °F 87% 30.28 in 10.0 mi NNE 3.5 mph - N/A   Clear
6:35 AM 27.3 °F 23.4 °F 23.9 °F 87% 30.28 in 10.0 mi NNE 3.5 mph - N/A   Clear
6:55 AM 26.4 °F 20.9 °F 23.7 °F 90% 30.28 in 10.0 mi NE 4.6 mph - N/A   Clear
7:15 AM 25.9 °F 20.3 °F 23.0 °F 89% 30.29 in 10.0 mi ENE 4.6 mph - N/A   Clear
7:35 AM 26.6 °F 22.6 °F 24.3 °F 91% 30.29 in 10.0 mi NNE 3.5 mph - N/A   Clear
7:55 AM 28.4 °F 24.6 °F 25.5 °F 89% 30.29 in 10.0 mi NE 3.5 mph - N/A   Clear
8:15 AM 29.3 °F - 26.4 °F 89% 30.29 in 10.0 mi Calm Calm - N/A   Clear
8:35 AM 30.6 °F 25.8 °F 27.3 °F 88% 30.30 in 10.0 mi North 4.6 mph - N/A   Clear
8:55 AM 32.9 °F 28.5 °F 28.4 °F 84% 30.31 in 10.0 mi North 4.6 mph - N/A   Clear
9:15 AM 33.6 °F 29.4 °F 28.8 °F 82% 30.31 in 10.0 mi North 4.6 mph - N/A   Clear
9:35 AM 34.7 °F 29.6 °F 29.8 °F 82% 30.31 in 10.0 mi North 5.8 mph - N/A   Clear
9:55 AM 37.2 °F 32.6 °F 29.8 °F 75% 30.32 in 10.0 mi North 5.8 mph - N/A   Clear
10:15 AM 38.7 °F 34.3 °F 30.7 °F 73% 30.31 in 10.0 mi North 5.8 mph - N/A   Clear
10:35 AM 39.4 °F 33.8 °F 29.3 °F 67% 30.31 in 10.0 mi North 8.1 mph - N/A   Clear
10:55 AM 40.3 °F 33.4 °F 29.3 °F 65% 30.30 in 10.0 mi North 11.5 mph - N/A   Clear
11:15 AM 42.3 °F 35.9 °F 28.9 °F 59% 30.29 in 10.0 mi NNW 11.5 mph - N/A   Clear
11:35 AM 43.7 °F 37.7 °F 28.9 °F 56% 30.28 in 10.0 mi NNW 11.5 mph - N/A   Clear
11:55 AM 44.8 °F 39.9 °F 30.0 °F 56% 30.26 in 10.0 mi NW 9.2 mph - N/A   Clear
12:15 PM 44.8 °F 39.4 °F 30.2 °F 57% 30.26 in 10.0 mi NW 10.4 mph - N/A   Clear
12:35 PM 45.9 °F 40.8 °F 29.7 °F 53% 30.26 in 10.0 mi NNW 10.4 mph - N/A   Clear
12:55 PM 46.6 °F - 29.8 °F 52% 30.25 in 10.0 mi North 9.2 mph - N/A   Clear
1:15 PM 46.4 °F 41.1 °F 29.7 °F 52% 30.24 in 10.0 mi North 11.5 mph - N/A   Clear
1:35 PM 45.0 °F 37.9 °F 30.2 °F 56% 30.23 in 10.0 mi North 16.1 mph - N/A   Clear
1:55 PM 45.3 °F 38.4 °F 30.0 °F 55% 30.22 in 10.0 mi NNW 16.1 mph - N/A   Clear
2:15 PM 44.2 °F 38.8 °F 30.2 °F 58% 30.22 in 10.0 mi NW 10.4 mph - N/A   Clear
2:35 PM 43.3 °F 37.2 °F 30.0 °F 59% 30.22 in 10.0 mi NNW 11.5 mph - N/A   Clear
2:55 PM 44.4 °F 39.5 °F 28.6 °F 54% 30.22 in 10.0 mi NNW 9.2 mph - N/A   Clear
3:15 PM 45.3 °F 39.7 °F 26.8 °F 48% 30.21 in 10.0 mi WNW 11.5 mph 16.1 mph N/A   Clear
3:35 PM 44.1 °F 38.6 °F 25.0 °F 47% 30.21 in 10.0 mi NW 10.4 mph - N/A   Clear
3:55 PM 43.0 °F 39.5 °F 24.1 °F 47% 30.21 in 10.0 mi NNW 5.8 mph - N/A   Clear
4:15 PM 42.1 °F 40.2 °F 22.1 °F 45% 30.21 in 10.0 mi WNW 3.5 mph - N/A   Clear
4:35 PM 39.2 °F 37.0 °F 24.8 °F 56% 30.21 in 10.0 mi ENE 3.5 mph - N/A   Clear
4:55 PM 37.0 °F 33.3 °F 24.8 °F 61% 30.21 in 10.0 mi ENE 4.6 mph - N/A   Clear
5:15 PM 39.0 °F 36.8 °F 20.3 °F 47% 30.22 in 10.0 mi West 3.5 mph - N/A   Clear
5:35 PM 38.7 °F - 18.5 °F 44% 30.21 in 10.0 mi Calm Calm - N/A   Clear
5:55 PM 38.8 °F 34.6 °F 17.1 °F 41% 30.20 in 10.0 mi WSW 5.8 mph - N/A   Clear
6:15 PM 38.3 °F 34.8 °F 16.9 °F 42% 30.20 in 10.0 mi WSW 4.6 mph - N/A   Clear
6:35 PM 37.9 °F 30.5 °F 16.2 °F 41% 30.18 in 10.0 mi WNW 11.5 mph - N/A   Clear
6:55 PM 41.2 °F 32.1 °F 14.2 °F 33% 30.17 in 10.0 mi WNW 19.6 mph 28.8 mph N/A   Clear
7:15 PM 40.6 °F 30.2 °F 12.9 °F 32% 30.17 in 10.0 mi NW 25.3 mph 29.9 mph N/A   Clear
7:35 PM 41.7 °F 32.6 °F 12.7 °F 31% 30.17 in 10.0 mi NW 20.7 mph 28.8 mph N/A   Clear
7:55 PM 41.0 °F 33.5 °F 12.9 °F 32% 30.19 in 10.0 mi NW 13.8 mph 24.2 mph N/A   Clear
8:15 PM 40.3 °F 33.4 °F 13.3 °F 33% 30.19 in 10.0 mi NW 11.5 mph - N/A   Clear
8:35 PM 39.0 °F 34.8 °F 13.6 °F 36% 30.19 in 10.0 mi NW 5.8 mph - N/A   Clear
8:55 PM 37.9 °F 35.5 °F 13.8 °F 37% 30.19 in 10.0 mi NNW 3.5 mph - N/A   Clear
9:15 PM 37.8 °F 33.3 °F 15.3 °F 40% 30.19 in 10.0 mi ENE 5.8 mph - N/A   Clear
9:35 PM 37.2 °F - 15.4 °F 41% 30.19 in 10.0 mi Calm Calm - N/A   Clear
9:55 PM 37.8 °F 33.3 °F 15.1 °F 40% 30.19 in 10.0 mi ENE 5.8 mph - N/A   Clear
10:15 PM 38.1 °F - 15.3 °F 39% 30.19 in 10.0 mi Calm Calm - N/A   Clear
10:35 PM 37.4 °F - 15.1 °F 40% 30.20 in 10.0 mi Calm Calm - N/A   Clear
10:55 PM 38.8 °F - 15.3 °F 38% 30.19 in 10.0 mi Calm Calm - N/A   Clear
11:15 PM 36.9 °F - 17.6 °F 46% 30.18 in 10.0 mi Calm Calm - N/A   Clear
11:35 PM 34.7 °F - 18.3 °F 51% 30.17 in 10.0 mi Calm Calm - N/A   Clear
11:55 PM 32.0 °F - 20.1 °F 62% 30.17 in 10.0 mi Calm Calm - N/A   Clear